Hutchinson County Airport - Borger, Texas, United States - FAA: BGD - ICAO: KBGD - IATA: BGD

 
  Longest Runway: 6,300 feet   Approach Types:    Customs Landing Rights Airport: No   Port of Entry: No

Local Forecast

Today (4/30): Mostly sunny, with a high near 64. North northwest wind around 10 mph.

Tonight (4/30): A 20 percent chance of showers after 1am. Mostly cloudy, with a low around 42. North wind 10 to 15 mph becoming east after midnight. Winds could gust as high as 30 mph.

Sunday (5/1): A chance of showers and thunderstorms, then showers likely and possibly a thunderstorm after 1pm. Mostly cloudy, with a high near 53. South wind around 15 mph becoming north northeast in the afternoon. Winds could gust as high as 30 mph. Chance of precipitation is 60%.

Sunday Night (5/1): A 40 percent chance of showers, mainly before 1am. Mostly cloudy, with a low around 41. North wind 10 to 15 mph, with gusts as high as 20 mph.

Monday (5/2): Partly sunny, with a high near 60. North wind around 10 mph.

Monday Night (5/2): Partly cloudy, with a low around 43. North northeast wind 5 to 10 mph becoming south after midnight.

Tuesday (5/3): A 20 percent chance of showers and thunderstorms. Mostly sunny, with a high near 66. Southwest wind around 5 mph.



Current Weather (METAR)

2016/04/30 15:51 KBGD 301551Z AUTO VRB06KT 10SM FEW027 10/03 A2991 RMK AO2 SLP120 T01000028

BORGER HUTCHINSON CO AIRPORT , TX, United States (KBGD) 35-42N 101-24W 927M Apr 30, 2016 - 11:51 AM EDT / 2016.04.30 1551 UTC Wind: Variable at 7 MPH (6 KT):0 Visibility: 10 mile(s):0 Sky conditions: mostly clear Temperature: 50.0 F (10.0 C) Dew Point: 37.0 F (2.8 C) Relative Humidity: 60% Pressure (altimeter): 29.91 in. Hg (1012 hPa) ob: KBGD 301551Z AUTO VRB06KT 10SM FEW027 10/03 A2991 RMK AO2 SLP120 T01000028 cycle: 16

Terminal Forecast (TAF)